createdAt,value
2019-03-28T00:00:45.969Z,7.61
2019-03-28T00:01:49.671Z,7.51
2019-03-28T00:02:53.610Z,7.46
2019-03-28T00:03:57.244Z,7.43
2019-03-28T00:05:00.874Z,7.39
2019-03-28T00:06:04.610Z,7.41
2019-03-28T00:07:08.243Z,7.39
2019-03-28T00:08:12.672Z,7.48
2019-03-28T00:09:16.531Z,7.54
2019-03-28T00:10:20.227Z,7.56
2019-03-28T00:11:24.217Z,7.54
2019-03-28T00:12:28.010Z,7.51
2019-03-28T00:13:31.643Z,7.52
2019-03-28T00:14:35.573Z,7.52
2019-03-28T00:15:39.194Z,7.47
2019-03-28T00:16:42.827Z,7.47
2019-03-28T00:17:46.510Z,7.46
2019-03-28T00:18:50.217Z,7.53
2019-03-28T00:19:53.850Z,7.56
2019-03-28T00:20:57.548Z,7.44
2019-03-28T00:22:01.284Z,7.42
2019-03-28T00:23:09.613Z,7.37
2019-03-28T00:24:17.660Z,7.36
2019-03-28T00:25:22.862Z,7.39
2019-03-28T00:26:30.493Z,7.49
2019-03-28T00:27:31.870Z,7.47
2019-03-28T00:28:35.501Z,7.38
2019-03-28T00:29:39.052Z,7.26
2019-03-28T00:30:42.888Z,7.28
2019-03-28T00:31:48.060Z,7.27
2019-03-28T00:32:52.403Z,7.24
2019-03-28T00:33:56.279Z,7.26
2019-03-28T00:35:00.213Z,7.31
2019-03-28T00:36:04.183Z,7.35
2019-03-28T00:37:08.910Z,7.32
2019-03-28T00:38:12.719Z,7.22
2019-03-28T00:39:16.356Z,6.98
2019-03-28T00:40:19.985Z,7.03
2019-03-28T00:41:23.619Z,6.98
2019-03-28T00:42:27.246Z,6.93
2019-03-28T00:43:30.908Z,6.89
2019-03-28T00:44:34.602Z,6.97
2019-03-28T00:45:38.302Z,6.91
2019-03-28T00:46:42.002Z,6.80
2019-03-28T00:47:45.711Z,6.75
2019-03-28T00:48:49.373Z,6.75
2019-03-28T00:49:52.996Z,6.84
2019-03-28T00:50:56.622Z,6.87
2019-03-28T00:52:00.258Z,6.82
2019-03-28T00:53:03.956Z,6.81
2019-03-28T00:54:07.621Z,6.71
2019-03-28T00:55:11.541Z,6.79
2019-03-28T00:56:15.142Z,6.87
2019-03-28T00:57:19.249Z,6.91
2019-03-28T00:58:23.003Z,6.93
2019-03-28T00:59:26.596Z,6.87
2019-03-28T01:00:30.232Z,6.79
2019-03-28T01:01:33.847Z,6.81
2019-03-28T01:02:37.470Z,6.84
2019-03-28T01:03:41.439Z,6.87
2019-03-28T01:04:45.107Z,6.82
2019-03-28T01:05:48.745Z,6.76
2019-03-28T01:06:52.360Z,6.76
2019-03-28T01:07:55.920Z,6.80
2019-03-28T01:08:59.541Z,6.86
2019-03-28T01:10:03.219Z,6.83
2019-03-28T01:11:06.833Z,6.67
2019-03-28T01:12:10.773Z,6.64
2019-03-28T01:13:14.339Z,6.70
2019-03-28T01:14:17.971Z,6.77
2019-03-28T01:15:21.632Z,6.82
2019-03-28T01:16:25.650Z,6.84
2019-03-28T01:17:29.207Z,6.87
2019-03-28T01:18:32.830Z,6.93
2019-03-28T01:19:36.387Z,6.93
2019-03-28T01:20:39.904Z,6.96
2019-03-28T01:21:43.544Z,6.95
2019-03-28T01:22:47.169Z,6.90
2019-03-28T01:23:50.729Z,6.91
2019-03-28T01:24:54.350Z,6.92
2019-03-28T01:25:57.932Z,6.84
2019-03-28T01:27:01.491Z,6.82
2019-03-28T01:28:05.052Z,6.76
2019-03-28T01:29:08.678Z,6.72
2019-03-28T01:30:12.608Z,6.74
2019-03-28T01:31:16.273Z,6.76
2019-03-28T01:32:20.152Z,6.77
2019-03-28T01:33:23.778Z,6.75
2019-03-28T01:34:27.411Z,6.75
2019-03-28T01:35:31.403Z,6.67
2019-03-28T01:36:34.991Z,6.57
2019-03-28T01:37:38.607Z,6.48
2019-03-28T01:38:42.241Z,6.41
2019-03-28T01:39:45.927Z,6.46
2019-03-28T01:40:49.553Z,6.45
2019-03-28T01:41:53.289Z,6.46
2019-03-28T01:42:56.918Z,6.46
2019-03-28T01:44:00.889Z,6.57
2019-03-28T01:45:06.518Z,6.48
2019-03-28T01:46:10.148Z,6.20
2019-03-28T01:47:13.743Z,6.22
2019-03-28T01:48:17.665Z,6.31
2019-03-28T01:49:21.287Z,6.35
2019-03-28T01:50:24.917Z,6.29
2019-03-28T01:51:28.545Z,6.32
2019-03-28T01:52:32.212Z,6.34
2019-03-28T01:53:35.842Z,6.38
2019-03-28T01:54:39.472Z,6.30
2019-03-28T01:55:43.103Z,6.28
2019-03-28T01:56:46.736Z,6.30
2019-03-28T01:57:50.455Z,6.34
2019-03-28T01:58:55.185Z,6.38
2019-03-28T01:59:58.937Z,6.29
2019-03-28T02:01:03.056Z,6.38
2019-03-28T02:02:06.713Z,6.39
2019-03-28T02:03:11.269Z,6.32
2019-03-28T02:04:15.052Z,6.27
2019-03-28T02:05:18.675Z,6.21
2019-03-28T02:06:22.294Z,6.24
2019-03-28T02:07:25.913Z,6.31
2019-03-28T02:08:29.614Z,6.26
2019-03-28T02:09:33.589Z,6.11
2019-03-28T02:10:37.288Z,5.98
2019-03-28T02:11:40.932Z,6.02
2019-03-28T02:12:44.868Z,5.94
2019-03-28T02:13:48.557Z,5.90
2019-03-28T02:14:52.226Z,5.92
2019-03-28T02:15:55.918Z,5.84
2019-03-28T02:16:59.547Z,5.73
2019-03-28T02:18:03.348Z,5.76
2019-03-28T02:19:07.086Z,5.71
2019-03-28T02:20:11.644Z,5.69
2019-03-28T02:21:15.354Z,5.72
2019-03-28T02:22:19.414Z,5.66
2019-03-28T02:23:23.260Z,5.71
2019-03-28T02:24:26.894Z,5.70
2019-03-28T02:25:30.615Z,5.73
2019-03-28T02:26:34.444Z,5.78
2019-03-28T02:27:38.009Z,5.78
2019-03-28T02:28:42.003Z,5.85
2019-03-28T02:29:45.636Z,5.90
2019-03-28T02:30:50.603Z,5.91
2019-03-28T02:31:54.400Z,5.91
2019-03-28T02:32:58.030Z,5.93
2019-03-28T02:34:01.724Z,5.96
2019-03-28T02:35:06.275Z,5.95
2019-03-28T02:36:10.073Z,6.00
2019-03-28T02:37:13.710Z,5.96
2019-03-28T02:38:17.335Z,5.97
2019-03-28T02:39:20.951Z,6.01
2019-03-28T02:40:24.580Z,5.98
2019-03-28T02:41:28.304Z,5.90
2019-03-28T02:42:31.926Z,5.75
2019-03-28T02:43:35.555Z,5.59
2019-03-28T02:44:39.183Z,5.45
2019-03-28T02:45:43.141Z,5.35
2019-03-28T02:46:46.798Z,5.23
2019-03-28T02:47:50.428Z,5.24
2019-03-28T02:48:54.129Z,5.28
2019-03-28T02:49:57.766Z,5.29
2019-03-28T02:51:01.392Z,5.29
2019-03-28T02:52:05.121Z,5.32
2019-03-28T02:53:08.753Z,5.32
2019-03-28T02:54:12.464Z,5.34
2019-03-28T02:55:16.093Z,5.38
2019-03-28T02:56:20.113Z,5.43
2019-03-28T02:57:39.603Z,5.40
2019-03-28T02:58:29.124Z,5.45
2019-03-28T02:59:32.826Z,5.48
2019-03-28T03:00:36.530Z,5.46
2019-03-28T03:01:40.641Z,5.45
2019-03-28T03:02:44.467Z,5.45
2019-03-28T03:03:48.107Z,5.40
2019-03-28T03:04:51.800Z,5.39
2019-03-28T03:05:55.423Z,5.34
2019-03-28T03:06:58.985Z,5.26
2019-03-28T03:08:02.653Z,5.14
2019-03-28T03:09:09.353Z,5.02
2019-03-28T03:10:13.085Z,5.03
2019-03-28T03:11:16.705Z,4.92
2019-03-28T03:12:20.463Z,4.91
2019-03-28T03:13:24.094Z,4.86
2019-03-28T03:14:27.716Z,4.81
2019-03-28T03:15:31.345Z,4.72
2019-03-28T03:16:35.030Z,4.81
2019-03-28T03:17:38.810Z,4.88
2019-03-28T03:18:42.474Z,4.81
2019-03-28T03:19:46.099Z,4.77
2019-03-28T03:20:49.743Z,4.79
2019-03-28T03:21:53.359Z,4.81
2019-03-28T03:22:56.979Z,4.86
2019-03-28T03:24:00.641Z,4.86
2019-03-28T03:25:08.326Z,4.87
2019-03-28T03:26:11.986Z,4.98
2019-03-28T03:27:15.612Z,5.03
2019-03-28T03:28:19.183Z,5.06
2019-03-28T03:29:24.488Z,5.03
2019-03-28T03:30:28.430Z,5.01
2019-03-28T03:31:32.131Z,5.07
2019-03-28T03:32:35.858Z,5.03
2019-03-28T03:33:39.415Z,4.96
2019-03-28T03:34:43.088Z,4.89
2019-03-28T03:35:46.717Z,4.92
2019-03-28T03:36:50.272Z,4.95
2019-03-28T03:37:54.354Z,4.90
2019-03-28T03:38:59.353Z,4.92
2019-03-28T03:40:03.297Z,4.89
2019-03-28T03:41:07.118Z,4.80
2019-03-28T03:42:10.763Z,4.76
2019-03-28T03:43:14.761Z,4.81
2019-03-28T03:44:18.428Z,4.82
2019-03-28T03:45:22.103Z,4.85
2019-03-28T03:46:25.725Z,4.93
2019-03-28T03:47:29.279Z,4.97
2019-03-28T03:48:32.915Z,4.92
2019-03-28T03:49:36.540Z,4.90
2019-03-28T03:50:40.192Z,4.94
2019-03-28T03:51:46.483Z,4.95
2019-03-28T03:52:49.175Z,4.91
2019-03-28T03:53:52.812Z,4.87
2019-03-28T03:54:56.438Z,4.90
2019-03-28T03:56:00.015Z,4.88
2019-03-28T03:57:03.636Z,4.89
2019-03-28T03:58:15.258Z,4.88
2019-03-28T03:59:12.628Z,4.89
2019-03-28T04:00:19.168Z,4.81
2019-03-28T04:01:22.827Z,4.75
2019-03-28T04:02:26.478Z,4.75
2019-03-28T04:03:30.031Z,4.77
2019-03-28T04:04:33.674Z,4.80
2019-03-28T04:05:37.356Z,4.86
2019-03-28T04:06:42.162Z,4.88
2019-03-28T04:07:45.787Z,4.93
2019-03-28T04:08:49.421Z,4.92
2019-03-28T04:09:52.982Z,4.92
2019-03-28T04:10:56.965Z,4.92
2019-03-28T04:12:00.551Z,4.94
2019-03-28T04:13:04.199Z,4.95
2019-03-28T04:14:07.812Z,4.95
2019-03-28T04:15:11.523Z,4.95
2019-03-28T04:16:15.147Z,4.86
2019-03-28T04:17:18.792Z,4.89
2019-03-28T04:18:22.631Z,4.91
2019-03-28T04:19:26.337Z,4.82
2019-03-28T04:20:29.978Z,4.81
2019-03-28T04:21:33.599Z,4.81
2019-03-28T04:22:37.494Z,4.80
2019-03-28T04:23:41.274Z,4.82
2019-03-28T04:24:44.906Z,4.87
2019-03-28T04:25:48.536Z,4.87
2019-03-28T04:26:52.163Z,4.80
2019-03-28T04:27:55.833Z,4.75
2019-03-28T04:28:59.402Z,4.72
2019-03-28T04:30:03.046Z,4.67
2019-03-28T04:31:06.671Z,4.65
2019-03-28T04:32:10.311Z,4.62
2019-03-28T04:33:13.981Z,4.60
2019-03-28T04:34:17.606Z,4.62
2019-03-28T04:35:21.231Z,4.53
2019-03-28T04:36:24.861Z,4.38
2019-03-28T04:37:28.497Z,4.30
2019-03-28T04:38:32.212Z,4.23
2019-03-28T04:39:35.877Z,4.22
2019-03-28T04:40:39.865Z,4.27
2019-03-28T04:41:43.502Z,4.14
2019-03-28T04:42:47.551Z,4.05
2019-03-28T04:43:55.405Z,4.02
2019-03-28T04:44:56.940Z,4.01
2019-03-28T04:46:00.557Z,3.94
2019-03-28T04:47:04.201Z,3.94
2019-03-28T04:48:07.934Z,4.00
2019-03-28T04:49:11.520Z,3.94
2019-03-28T04:50:15.297Z,3.97
2019-03-28T04:51:18.948Z,4.08
2019-03-28T04:52:22.588Z,4.27
2019-03-28T04:53:26.223Z,4.55
2019-03-28T04:54:29.864Z,4.78
2019-03-28T04:55:33.886Z,4.90
2019-03-28T04:56:38.258Z,4.75
2019-03-28T04:57:41.964Z,4.59
2019-03-28T04:58:45.617Z,4.38
2019-03-28T04:59:49.280Z,4.28
2019-03-28T05:00:53.530Z,4.25
2019-03-28T05:02:02.982Z,4.18
2019-03-28T05:03:02.581Z,4.04
2019-03-28T05:04:06.218Z,3.78
2019-03-28T05:05:10.753Z,3.70
2019-03-28T05:06:14.442Z,3.58
2019-03-28T05:07:18.088Z,3.55
2019-03-28T05:08:21.724Z,3.44
2019-03-28T05:09:25.502Z,3.37
2019-03-28T05:10:29.275Z,3.47
2019-03-28T05:11:33.397Z,3.49
2019-03-28T05:12:37.165Z,3.45
2019-03-28T05:13:40.821Z,3.43
2019-03-28T05:14:44.503Z,3.40
2019-03-28T05:15:48.231Z,3.45
2019-03-28T05:16:51.912Z,3.40
2019-03-28T05:17:55.485Z,3.35
2019-03-28T05:18:59.130Z,3.30
2019-03-28T05:20:03.172Z,3.23
2019-03-28T05:21:06.823Z,3.27
2019-03-28T05:22:10.500Z,3.28
2019-03-28T05:23:14.383Z,3.31
2019-03-28T05:24:18.255Z,3.36
2019-03-28T05:25:21.891Z,3.39
2019-03-28T05:26:25.623Z,3.46
2019-03-28T05:27:29.196Z,3.54
2019-03-28T05:28:32.836Z,3.66
2019-03-28T05:29:36.512Z,3.73
2019-03-28T05:30:40.156Z,3.78
2019-03-28T05:31:43.796Z,3.71
2019-03-28T05:32:47.484Z,3.70
2019-03-28T05:33:51.447Z,3.78
2019-03-28T05:34:55.448Z,3.79
2019-03-28T05:35:59.161Z,3.80
2019-03-28T05:37:02.879Z,3.84
2019-03-28T05:38:06.525Z,3.90
2019-03-28T05:39:10.152Z,3.95
2019-03-28T05:40:14.072Z,3.98
2019-03-28T05:41:17.711Z,3.98
2019-03-28T05:42:21.329Z,3.96
2019-03-28T05:43:25.056Z,3.91
2019-03-28T05:44:29.231Z,3.88
2019-03-28T05:45:35.101Z,3.84
2019-03-28T05:46:38.746Z,3.79
2019-03-28T05:47:42.401Z,3.82
2019-03-28T05:48:46.063Z,3.88
2019-03-28T05:49:49.668Z,3.98
2019-03-28T05:50:53.350Z,4.07
2019-03-28T05:51:57.004Z,4.06
2019-03-28T05:53:02.328Z,4.12
2019-03-28T05:54:06.060Z,4.12
2019-03-28T05:55:09.960Z,4.26
2019-03-28T05:56:13.548Z,4.38
2019-03-28T05:57:19.243Z,4.40
2019-03-28T05:58:22.883Z,4.41
2019-03-28T05:59:26.523Z,4.47
2019-03-28T06:00:30.209Z,4.46
2019-03-28T06:01:33.864Z,4.50
2019-03-28T06:02:37.495Z,4.44
2019-03-28T06:03:41.012Z,4.52
2019-03-28T06:04:44.645Z,4.51
2019-03-28T06:05:48.372Z,4.46
2019-03-28T06:06:52.022Z,4.45
2019-03-28T06:07:55.669Z,4.39
2019-03-28T06:08:59.302Z,4.35
2019-03-28T06:10:03.630Z,4.36
2019-03-28T06:11:07.321Z,4.37
2019-03-28T06:12:13.865Z,4.44
2019-03-28T06:13:17.444Z,4.54
2019-03-28T06:14:21.288Z,4.55
2019-03-28T06:15:24.983Z,4.56
2019-03-28T06:16:29.003Z,4.79
2019-03-28T06:17:32.639Z,4.88
2019-03-28T06:18:36.287Z,4.92
2019-03-28T06:19:39.945Z,4.99
2019-03-28T06:20:43.609Z,5.01
2019-03-28T06:21:47.548Z,4.99
2019-03-28T06:22:51.513Z,5.13
2019-03-28T06:23:55.040Z,5.39
2019-03-28T06:24:58.695Z,5.43
2019-03-28T06:26:02.333Z,5.43
2019-03-28T06:27:05.922Z,5.55
2019-03-28T06:28:09.559Z,5.68
2019-03-28T06:29:23.235Z,5.82
2019-03-28T06:30:19.584Z,5.83
2019-03-28T06:31:23.223Z,5.79
2019-03-28T06:32:26.832Z,5.89
2019-03-28T06:33:30.465Z,6.02
2019-03-28T06:34:34.113Z,6.00
2019-03-28T06:35:37.858Z,6.04
2019-03-28T06:36:41.481Z,6.01
2019-03-28T06:37:45.118Z,6.14
2019-03-28T06:38:48.759Z,6.30
2019-03-28T06:39:52.398Z,6.33
2019-03-28T06:40:56.014Z,6.34
2019-03-28T06:41:59.635Z,6.37
2019-03-28T06:43:03.387Z,6.41
2019-03-28T06:44:07.030Z,6.46
2019-03-28T06:45:10.950Z,6.55
2019-03-28T06:46:15.687Z,6.78
2019-03-28T06:47:21.096Z,6.97
2019-03-28T06:48:24.689Z,7.08
2019-03-28T06:49:28.341Z,7.12
2019-03-28T06:50:32.063Z,7.07
2019-03-28T06:51:35.691Z,7.00
2019-03-28T06:52:39.539Z,7.05
2019-03-28T06:53:45.508Z,7.12
2019-03-28T06:54:49.144Z,7.14
2019-03-28T06:55:52.805Z,7.34
2019-03-28T06:56:56.376Z,7.48
2019-03-28T06:58:00.004Z,7.61
2019-03-28T06:59:03.572Z,7.68
2019-03-28T07:00:11.344Z,7.79
2019-03-28T07:01:15.365Z,7.82
2019-03-28T07:02:21.756Z,7.93
2019-03-28T07:03:24.368Z,7.98
2019-03-28T07:04:27.997Z,8.13
2019-03-28T07:05:31.883Z,8.21
2019-03-28T07:06:35.519Z,8.29
2019-03-28T07:07:39.222Z,8.51
2019-03-28T07:08:42.859Z,8.76
2019-03-28T07:09:46.550Z,8.79
2019-03-28T07:10:50.238Z,8.89
2019-03-28T07:11:53.947Z,8.96
2019-03-28T07:12:57.512Z,8.96
2019-03-28T07:14:01.136Z,9.06
2019-03-28T07:15:06.987Z,9.33
2019-03-28T07:16:10.626Z,9.54
2019-03-28T07:17:14.251Z,9.78
2019-03-28T07:18:17.896Z,9.86
2019-03-28T07:19:21.847Z,9.91
2019-03-28T07:20:26.321Z,10.02
2019-03-28T07:21:30.535Z,10.16
2019-03-28T07:22:34.174Z,10.01
2019-03-28T07:23:37.815Z,10.09
2019-03-28T07:24:41.391Z,10.17
2019-03-28T07:25:45.058Z,10.39
2019-03-28T07:26:48.634Z,10.55
2019-03-28T07:27:52.201Z,10.68
2019-03-28T07:28:55.848Z,10.83
2019-03-28T07:29:59.560Z,10.84
2019-03-28T07:31:03.270Z,10.84
2019-03-28T07:32:06.919Z,11.55
2019-03-28T07:33:10.554Z,11.55
2019-03-28T07:34:14.205Z,11.94
2019-03-28T07:35:17.893Z,12.24
2019-03-28T07:36:21.598Z,12.24
2019-03-28T07:37:27.965Z,12.49
2019-03-28T07:38:33.392Z,12.75
2019-03-28T07:39:37.097Z,13.14
2019-03-28T07:40:40.753Z,13.21
2019-03-28T07:41:44.421Z,13.57
2019-03-28T07:42:48.058Z,13.67
2019-03-28T07:43:51.700Z,13.84
2019-03-28T07:44:55.347Z,14.12
2019-03-28T07:45:58.995Z,14.26
2019-03-28T07:47:02.668Z,14.52
2019-03-28T07:48:06.312Z,14.71
2019-03-28T07:49:09.959Z,14.89
2019-03-28T07:50:14.069Z,15.04
2019-03-28T07:51:17.709Z,14.99
2019-03-28T07:52:21.390Z,15.02
2019-03-28T07:53:25.031Z,15.20
2019-03-28T07:54:29.087Z,15.20
2019-03-28T07:55:32.731Z,15.14
2019-03-28T07:56:36.685Z,15.45
2019-03-28T07:57:40.866Z,15.68
2019-03-28T07:58:45.329Z,15.46
2019-03-28T07:59:49.202Z,15.42
2019-03-28T08:00:52.841Z,15.65
2019-03-28T08:01:56.488Z,15.85
2019-03-28T08:03:00.162Z,15.99
2019-03-28T08:04:03.803Z,16.08
2019-03-28T08:05:09.576Z,16.20
2019-03-28T08:06:13.209Z,16.20
2019-03-28T08:07:16.914Z,16.29
2019-03-28T08:08:20.590Z,16.27
2019-03-28T08:09:36.041Z,16.37
2019-03-28T08:10:29.590Z,16.14
2019-03-28T08:11:33.447Z,16.29
2019-03-28T08:12:37.107Z,16.29
2019-03-28T08:13:40.777Z,16.58
2019-03-28T08:14:44.410Z,16.66
2019-03-28T08:15:48.054Z,16.91
2019-03-28T08:16:51.687Z,17.15
2019-03-28T08:17:55.821Z,17.09
2019-03-28T08:18:59.503Z,17.04
2019-03-28T08:20:03.643Z,17.24
2019-03-28T08:21:07.279Z,17.36
2019-03-28T08:22:10.913Z,17.09
2019-03-28T08:23:14.547Z,17.18
2019-03-28T08:24:18.223Z,17.36
2019-03-28T08:25:21.852Z,17.53
2019-03-28T08:26:25.891Z,17.82
2019-03-28T08:27:29.527Z,18.00
2019-03-28T08:28:33.167Z,18.09
2019-03-28T08:29:36.790Z,18.16
2019-03-28T08:30:40.430Z,18.41
2019-03-28T08:31:46.203Z,18.57
2019-03-28T08:32:49.877Z,18.73
2019-03-28T08:33:53.513Z,18.78
2019-03-28T08:34:57.650Z,18.62
2019-03-28T08:36:02.392Z,18.81
2019-03-28T08:37:06.072Z,18.95
2019-03-28T08:38:10.441Z,19.06
2019-03-28T08:39:14.716Z,19.53
2019-03-28T08:40:39.851Z,19.64
2019-03-28T08:41:44.161Z,19.89
2019-03-28T08:42:47.837Z,20.01
2019-03-28T08:43:51.478Z,20.08
2019-03-28T08:44:55.130Z,20.34
2019-03-28T08:45:58.764Z,20.55
2019-03-28T08:47:02.395Z,20.40
2019-03-28T08:48:07.526Z,20.47
2019-03-28T08:49:11.198Z,20.77
2019-03-28T08:50:14.867Z,21.01
2019-03-28T08:51:18.511Z,21.29
2019-03-28T08:52:22.141Z,21.53
2019-03-28T08:53:25.833Z,21.60
2019-03-28T08:54:29.323Z,21.64
2019-03-28T08:55:32.957Z,21.57
2019-03-28T08:56:36.593Z,21.58
2019-03-28T08:57:40.273Z,21.69
2019-03-28T08:58:43.936Z,21.83
2019-03-28T09:02:30.619Z,22.59
2019-03-28T09:03:34.309Z,22.93
2019-03-28T09:04:37.924Z,22.73
2019-03-28T09:05:41.571Z,22.84
2019-03-28T09:06:45.208Z,23.14
2019-03-28T09:07:48.848Z,23.34
2019-03-28T09:08:52.461Z,23.63
2019-03-28T09:09:56.074Z,23.65
2019-03-28T09:10:59.631Z,24.05
2019-03-28T09:12:03.363Z,24.47
2019-03-28T09:15:52.533Z,24.17
2019-03-28T09:16:56.248Z,23.94
2019-03-28T09:18:00.363Z,23.86
2019-03-28T09:20:25.449Z,24.01
2019-03-28T09:21:29.091Z,24.18
2019-03-28T09:22:32.718Z,24.50
2019-03-28T09:23:36.614Z,24.41
2019-03-28T09:24:40.243Z,24.67
2019-03-28T09:25:43.911Z,24.66
2019-03-28T09:26:47.548Z,24.94
2019-03-28T09:27:51.768Z,25.25
2019-03-28T09:28:55.615Z,25.21
2019-03-28T09:29:59.258Z,25.47
2019-03-28T09:31:02.923Z,25.32
2019-03-28T09:32:06.560Z,24.85
2019-03-28T09:33:10.505Z,25.24
2019-03-28T09:34:14.215Z,25.87
2019-03-28T09:35:20.767Z,26.40
2019-03-28T09:36:24.428Z,26.10
2019-03-28T09:37:28.072Z,26.14
2019-03-28T09:38:31.705Z,26.01
2019-03-28T09:39:35.362Z,26.07
2019-03-28T09:40:38.927Z,26.01
2019-03-28T09:41:42.612Z,26.47
2019-03-28T09:42:46.276Z,26.45
2019-03-28T09:43:55.547Z,26.77
2019-03-28T09:44:55.723Z,26.80
2019-03-28T09:46:00.500Z,26.63
2019-03-28T09:47:05.156Z,27.02
2019-03-28T09:48:11.623Z,26.98
2019-03-28T09:49:14.535Z,27.21
2019-03-28T09:50:18.100Z,27.30
2019-03-28T09:51:21.727Z,26.32
2019-03-28T09:52:25.390Z,25.22
2019-03-28T09:53:29.023Z,25.70
2019-03-28T09:54:32.661Z,26.05
2019-03-28T09:55:36.313Z,25.81
2019-03-28T09:56:39.937Z,25.98
2019-03-28T09:57:43.599Z,24.92
2019-03-28T09:58:47.240Z,25.17
2019-03-28T09:59:50.865Z,25.35
2019-03-28T10:01:02.669Z,25.55
2019-03-28T10:02:01.398Z,25.53
2019-03-28T10:03:05.682Z,25.78
2019-03-28T10:04:09.653Z,26.21
2019-03-28T10:05:14.770Z,26.06
2019-03-28T10:06:18.409Z,26.04
2019-03-28T10:07:22.041Z,26.42
2019-03-28T10:08:25.817Z,26.25
2019-03-28T10:09:29.766Z,25.67
2019-03-28T10:10:33.414Z,25.09
2019-03-28T10:11:37.220Z,24.75
2019-03-28T10:12:43.949Z,24.21
2019-03-28T10:13:46.252Z,23.84
2019-03-28T10:14:49.893Z,23.97
2019-03-28T10:15:53.530Z,24.16
2019-03-28T10:16:57.250Z,23.92
2019-03-28T10:18:00.892Z,24.10
2019-03-28T10:19:04.984Z,24.03
2019-03-28T10:20:09.077Z,23.81
2019-03-28T10:21:12.723Z,23.62
2019-03-28T10:22:16.346Z,23.24
2019-03-28T10:23:20.042Z,23.00
2019-03-28T10:24:23.706Z,22.57
2019-03-28T10:25:27.341Z,22.15
2019-03-28T10:26:30.977Z,22.26
2019-03-28T10:27:34.610Z,22.47
2019-03-28T10:28:38.263Z,22.43
2019-03-28T10:29:41.978Z,21.61
2019-03-28T10:30:45.814Z,21.37
2019-03-28T10:31:49.459Z,21.24
2019-03-28T10:32:53.092Z,20.90
2019-03-28T10:33:57.117Z,20.53
2019-03-28T10:35:00.882Z,20.78
2019-03-28T10:36:04.521Z,21.07
2019-03-28T10:37:08.156Z,21.04
2019-03-28T10:38:11.773Z,21.11
2019-03-28T10:39:15.415Z,21.13
2019-03-28T10:40:19.068Z,21.18
2019-03-28T10:41:25.735Z,21.29
2019-03-28T10:42:28.072Z,21.69
2019-03-28T10:43:31.727Z,22.58
2019-03-28T10:44:35.350Z,23.37
2019-03-28T10:45:39.037Z,23.86
2019-03-28T10:46:42.612Z,24.57
2019-03-28T10:47:46.237Z,24.94
2019-03-28T10:48:49.877Z,25.23
2019-03-28T10:49:53.521Z,25.77
2019-03-28T10:50:57.193Z,26.05
2019-03-28T10:52:03.929Z,25.97
2019-03-28T10:53:06.189Z,25.55
2019-03-28T10:54:19.808Z,25.62
2019-03-28T10:55:15.289Z,25.78
2019-03-28T10:56:23.389Z,25.53
2019-03-28T10:57:29.747Z,24.96
2019-03-28T10:58:30.024Z,24.38
2019-03-28T10:59:33.990Z,24.36
2019-03-28T11:00:38.099Z,24.47
2019-03-28T11:01:49.030Z,24.98
2019-03-28T11:02:47.219Z,25.51
2019-03-28T11:03:50.839Z,26.02
2019-03-28T11:04:54.454Z,26.43
2019-03-28T11:05:58.170Z,26.92
2019-03-28T11:07:01.881Z,26.00
2019-03-28T11:08:05.525Z,26.18
2019-03-28T11:09:09.455Z,26.86
2019-03-28T11:10:13.390Z,27.21
2019-03-28T11:11:17.033Z,27.63
2019-03-28T11:12:21.111Z,27.22
2019-03-28T11:13:24.827Z,27.33
2019-03-28T11:14:28.450Z,27.28
2019-03-28T11:15:32.078Z,27.19
2019-03-28T11:16:35.710Z,27.52
2019-03-28T11:17:39.380Z,27.10
2019-03-28T11:18:43.080Z,26.69
2019-03-28T11:19:46.710Z,26.36
2019-03-28T11:20:50.346Z,26.36
2019-03-28T11:21:53.984Z,26.45
2019-03-28T11:22:57.642Z,26.66
2019-03-28T11:24:01.266Z,26.88
2019-03-28T11:25:06.740Z,26.51
2019-03-28T11:26:10.378Z,26.11
2019-03-28T11:27:14.012Z,26.44
2019-03-28T11:28:17.740Z,26.83
2019-03-28T11:29:21.335Z,26.81
2019-03-28T11:30:25.656Z,26.50
2019-03-28T11:31:29.402Z,26.16
2019-03-28T11:32:35.740Z,25.90
2019-03-28T11:33:38.483Z,25.95
2019-03-28T11:34:42.055Z,26.45
2019-03-28T11:35:45.681Z,27.09
2019-03-28T11:36:49.704Z,27.43
2019-03-28T11:37:53.362Z,27.32
2019-03-28T11:38:56.929Z,26.79
2019-03-28T11:40:00.577Z,26.56
2019-03-28T11:41:04.211Z,26.69
2019-03-28T11:42:07.907Z,26.07
2019-03-28T11:43:11.546Z,25.39
2019-03-28T11:44:15.214Z,25.14
2019-03-28T11:45:18.843Z,25.86
2019-03-28T11:46:22.476Z,26.00
2019-03-28T11:47:26.115Z,26.68
2019-03-28T11:48:29.751Z,27.39
2019-03-28T11:49:33.715Z,27.84
2019-03-28T11:50:37.391Z,27.99
2019-03-28T11:51:41.025Z,27.67
2019-03-28T11:52:44.773Z,27.36
2019-03-28T11:53:48.426Z,27.37
2019-03-28T11:54:52.184Z,27.64
2019-03-28T11:55:55.810Z,28.16
2019-03-28T11:56:59.740Z,28.39
2019-03-28T11:58:03.391Z,28.75
2019-03-28T11:59:07.180Z,28.85
2019-03-28T12:00:13.452Z,28.11
2019-03-28T12:01:17.060Z,28.10
2019-03-28T12:02:20.851Z,28.81
2019-03-28T12:03:24.436Z,29.55
2019-03-28T12:04:28.006Z,30.05
2019-03-28T12:05:31.659Z,29.39
2019-03-28T12:06:35.280Z,28.73
2019-03-28T12:07:38.929Z,28.74
2019-03-28T12:08:42.569Z,29.03
2019-03-28T12:09:46.200Z,28.54
2019-03-28T12:10:49.840Z,28.09
2019-03-28T12:11:53.520Z,28.47
2019-03-28T12:12:57.192Z,28.40
2019-03-28T12:14:00.841Z,28.06
2019-03-28T12:15:06.174Z,28.65
2019-03-28T12:16:09.774Z,29.39
2019-03-28T12:17:13.408Z,29.23
2019-03-28T12:18:16.965Z,28.80
2019-03-28T12:19:20.637Z,28.82
2019-03-28T12:20:24.247Z,28.96
2019-03-28T12:21:27.895Z,29.38
2019-03-28T12:22:31.624Z,29.57
2019-03-28T12:23:35.274Z,29.51
2019-03-28T12:24:38.906Z,29.65
2019-03-28T12:25:42.899Z,29.06
2019-03-28T12:26:46.568Z,28.67
2019-03-28T12:27:50.330Z,28.22
2019-03-28T12:28:53.921Z,28.59
2019-03-28T12:29:57.557Z,28.93
2019-03-28T12:31:01.199Z,28.84
2019-03-28T12:32:13.812Z,28.28
2019-03-28T12:33:10.308Z,27.70
2019-03-28T12:34:13.977Z,27.45
2019-03-28T12:35:17.596Z,26.77
2019-03-28T12:36:21.237Z,25.64
2019-03-28T12:37:24.916Z,25.16
2019-03-28T12:38:28.744Z,24.86
2019-03-28T12:39:32.653Z,24.30
2019-03-28T12:40:36.369Z,23.96
2019-03-28T12:41:39.989Z,24.07
2019-03-28T12:42:43.784Z,24.00
2019-03-28T12:43:48.862Z,23.97
2019-03-28T12:44:57.171Z,24.08
2019-03-28T12:45:58.002Z,23.83
2019-03-28T12:47:04.917Z,23.62
2019-03-28T12:48:08.556Z,23.51
2019-03-28T12:49:12.200Z,23.52
2019-03-28T12:50:16.450Z,23.74
2019-03-28T12:51:22.190Z,23.75
2019-03-28T12:52:25.449Z,24.22
2019-03-28T12:53:29.124Z,24.71
2019-03-28T12:54:32.822Z,24.65
2019-03-28T12:55:36.537Z,24.20
2019-03-28T12:56:40.171Z,23.84
2019-03-28T12:57:43.877Z,23.37
2019-03-28T12:58:48.587Z,22.96
2019-03-28T12:59:53.754Z,22.24
2019-03-28T13:00:57.997Z,21.95
2019-03-28T13:02:02.100Z,21.62
2019-03-28T13:03:05.807Z,21.33
2019-03-28T13:04:09.470Z,21.17
2019-03-28T13:05:13.299Z,21.11
2019-03-28T13:06:16.943Z,20.95
2019-03-28T13:07:20.587Z,20.89
2019-03-28T13:08:24.512Z,20.71
2019-03-28T13:09:28.299Z,20.47
2019-03-28T13:10:31.907Z,20.31
2019-03-28T13:11:35.557Z,20.18
2019-03-28T13:12:39.200Z,19.88
2019-03-28T13:13:42.834Z,19.91
2019-03-28T13:14:47.732Z,19.84
2019-03-28T13:15:51.490Z,19.81
2019-03-28T13:16:56.076Z,19.68
2019-03-28T13:17:59.715Z,19.59
2019-03-28T13:19:03.383Z,19.48
2019-03-28T13:20:09.011Z,19.40
2019-03-28T13:21:14.108Z,19.43
2019-03-28T13:22:17.953Z,19.36
2019-03-28T13:23:21.591Z,19.30
2019-03-28T13:24:25.184Z,19.13
2019-03-28T13:25:28.813Z,19.01
2019-03-28T13:26:32.444Z,19.15
2019-03-28T13:27:36.712Z,19.20
2019-03-28T13:28:40.681Z,19.21
2019-03-28T13:29:44.364Z,19.08
2019-03-28T13:30:48.063Z,18.98
2019-03-28T13:31:51.703Z,18.92
2019-03-28T13:32:55.340Z,18.86
2019-03-28T13:33:58.977Z,18.82
2019-03-28T13:35:02.646Z,18.68
2019-03-28T13:36:06.278Z,18.62
2019-03-28T13:37:09.910Z,18.61
2019-03-28T13:38:13.544Z,18.87
2019-03-28T13:39:17.195Z,19.14
2019-03-28T13:40:21.151Z,19.11
2019-03-28T13:41:24.787Z,19.01
2019-03-28T13:42:28.483Z,18.98
2019-03-28T13:43:32.107Z,18.91
2019-03-28T13:44:35.734Z,18.80
2019-03-28T13:45:40.413Z,18.68
2019-03-28T13:46:44.208Z,18.68
2019-03-28T13:47:47.763Z,18.50
2019-03-28T13:48:51.394Z,18.31
2019-03-28T13:49:55.028Z,17.97
2019-03-28T13:50:59.040Z,17.91
2019-03-28T13:52:02.733Z,17.92
2019-03-28T13:53:06.323Z,17.92
2019-03-28T13:54:09.958Z,17.68
2019-03-28T13:55:14.037Z,17.94
2019-03-28T13:56:18.109Z,18.53
2019-03-28T13:57:21.945Z,18.88
2019-03-28T13:58:25.543Z,18.75
2019-03-28T13:59:29.170Z,18.44
2019-03-28T14:00:33.904Z,18.29
2019-03-28T14:01:37.564Z,18.10
2019-03-28T14:02:54.317Z,17.84
2019-03-28T14:03:46.622Z,17.77
2019-03-28T14:04:50.254Z,17.74